Piermont, New York
Current Conditions -  °F | °C
As of 3:56 PM on Tuesday 21 Oct 2014 (Local Time) from KHPN Reporting Station
Broken Clouds Broken Clouds  
Wind Chill: 62°   Ceiling: 6500
Heat Index: 62°   Visibility: 10mi
Dew Point: 50°   Wind: 7mph
Humidity: 65%   Direction: 120°ESE
Pressure: 29.84"   Gusts: NA
Location:  41.04°N, 73.92°W
Report Text: KHPN 211956Z 12006KT 10SM FEW048 BKN065 17/10 A2984 RMK AO2 RAB06E52 SLP105 P0000 T01670100
Loading
Personal Weather Stations






























Interactive Weather Map
Tropical Storm Tracking
New forecast layout! Learn more

10-Day Weather Forecast

Advertisements
Track Severe Weather on mobile